Time;durP1;ratioP1;P1;durP2;ratioP2;P2;SDS_P1;SDS_P2;PMS_P1;PMS_P2;Temp;Humidity;BMP_temperature;BMP_pressure;BME280_temperature;BME280_humidity;BME280_pressure;Samples;Min_cycle;Max_cycle;Signal;HPM_P1;HPM_P2
2022/10/05 00:01:22;;;;;;;1.00;1.00;;;12.40;99.90;;;;;;5041625;28;20204;-69
2022/10/05 00:03:49;;;;;;;1.10;1.10;;;12.40;99.90;;;;;;5047729;28;20234;-69
2022/10/05 00:06:15;;;;;;;1.70;1.20;;;12.40;99.90;;;;;;5040376;28;20217;-68
2022/10/05 00:08:43;;;;;;;1.47;1.10;;;12.30;99.90;;;;;;5039887;28;20204;-67
2022/10/05 00:11:14;;;;;;;1.03;1.03;;;12.30;99.90;;;;;;5037548;28;20303;-68
2022/10/05 00:13:42;;;;;;;1.10;1.10;;;12.30;99.90;;;;;;5039813;28;20659;-69
2022/10/05 00:16:15;;;;;;;1.30;1.30;;;12.20;99.90;;;;;;5044368;28;20720;-69
2022/10/05 00:18:43;;;;;;;1.10;1.10;;;12.20;99.90;;;;;;5042309;28;20193;-68
2022/10/05 00:21:18;;;;;;;1.00;1.00;;;12.10;99.90;;;;;;5038186;28;20196;-68
2022/10/05 00:23:45;;;;;;;1.57;1.10;;;12.10;99.90;;;;;;5042239;28;20196;-69
2022/10/05 00:26:16;;;;;;;1.47;1.37;;;12.10;99.90;;;;;;5045649;28;20227;-68
2022/10/05 00:28:44;;;;;;;1.10;1.10;;;12.20;99.90;;;;;;5045477;28;20633;-69
2022/10/05 00:31:16;;;;;;;1.03;1.03;;;12.20;99.90;;;;;;5046849;28;20200;-67
2022/10/05 00:33:43;;;;;;;0.90;0.90;;;12.30;99.90;;;;;;5045660;28;20193;-67
2022/10/05 00:36:10;;;;;;;1.20;1.20;;;12.30;99.90;;;;;;5047081;28;20231;-67
2022/10/05 00:38:37;;;;;;;1.23;1.10;;;12.30;99.90;;;;;;5046556;28;20208;-67
2022/10/05 00:41:09;;;;;;;1.07;1.07;;;12.20;99.90;;;;;;5042365;28;20285;-68
2022/10/05 00:44:01;;;;;;;0.90;0.90;;;12.20;99.90;;;;;;5046453;28;20212;-68
2022/10/05 00:46:36;;;;;;;0.90;0.90;;;12.20;99.90;;;;;;5049960;28;20227;-69
2022/10/05 00:49:11;;;;;;;0.90;0.90;;;12.20;99.90;;;;;;5041874;28;20188;-69
2022/10/05 00:51:41;;;;;;;1.03;0.90;;;12.20;99.90;;;;;;5058998;28;20686;-69
2022/10/05 00:54:20;;;;;;;1.40;1.17;;;12.10;99.90;;;;;;5052107;28;20211;-68
2022/10/05 00:57:02;;;;;;;1.10;1.10;;;12.20;99.90;;;;;;5059009;28;20708;-70
2022/10/05 00:59:43;;;;;;;1.30;1.30;;;12.20;99.90;;;;;;5050529;28;20677;-68
2022/10/05 01:02:15;;;;;;;1.03;1.03;;;12.20;99.90;;;;;;5037582;28;20214;-69
2022/10/05 01:04:48;;;;;;;0.97;0.97;;;12.10;99.90;;;;;;5043695;28;20204;-69
2022/10/05 01:07:22;;;;;;;1.00;1.00;;;12.10;99.90;;;;;;5046645;28;20204;-68
2022/10/05 01:09:56;;;;;;;1.00;1.00;;;12.10;99.90;;;;;;5042823;28;20201;-68
2022/10/05 01:12:29;;;;;;;0.83;0.83;;;12.10;99.90;;;;;;5048231;28;20208;-68
2022/10/05 01:15:07;;;;;;;1.53;1.00;;;12.10;99.90;;;;;;5039190;28;20203;-69
2022/10/05 01:17:40;;;;;;;1.30;1.20;;;12.00;99.90;;;;;;5050583;28;20222;-68
2022/10/05 01:20:26;;;;;;;1.27;1.03;;;12.00;99.90;;;;;;5042838;28;20214;-68
2022/10/05 01:23:19;;;;;;;1.00;1.00;;;11.90;99.90;;;;;;5050785;28;20193;-68
2022/10/05 01:25:56;;;;;;;1.00;1.00;;;11.90;99.90;;;;;;5044137;28;20629;-68
2022/10/05 01:28:28;;;;;;;1.00;1.00;;;11.90;99.90;;;;;;5045171;28;20215;-69
2022/10/05 01:31:08;;;;;;;0.90;0.90;;;11.80;99.90;;;;;;5033403;28;20204;-69
2022/10/05 01:33:43;;;;;;;0.87;0.87;;;11.80;99.90;;;;;;5045388;28;20568;-69
2022/10/05 01:36:17;;;;;;;0.90;0.90;;;11.80;99.90;;;;;;5045666;28;20235;-69
2022/10/05 01:38:54;;;;;;;1.27;1.27;;;11.80;99.90;;;;;;5045854;28;20204;-68
2022/10/05 01:41:29;;;;;;;0.90;0.90;;;11.80;99.90;;;;;;5050277;28;20204;-70
2022/10/05 01:44:03;;;;;;;1.00;1.00;;;11.80;99.90;;;;;;5057570;28;20200;-69
2022/10/05 01:46:36;;;;;;;1.00;1.00;;;11.70;99.90;;;;;;5052388;28;20230;-70
2022/10/05 01:49:18;;;;;;;0.90;0.90;;;11.70;99.90;;;;;;5043866;28;20196;-68
2022/10/05 01:51:55;;;;;;;1.30;1.30;;;11.70;99.90;;;;;;5045047;28;20200;-68
2022/10/05 01:54:34;;;;;;;0.80;0.80;;;11.70;99.90;;;;;;5043108;28;20659;-69
2022/10/05 01:57:09;;;;;;;0.90;0.90;;;11.70;99.90;;;;;;5036578;28;20705;-68
2022/10/05 01:59:56;;;;;;;1.00;1.00;;;11.70;99.90;;;;;;5034571;28;20200;-69
2022/10/05 02:02:25;;;;;;;1.00;1.00;;;11.70;99.90;;;;;;5041996;28;20680;-68
2022/10/05 02:04:56;;;;;;;0.87;0.87;;;11.60;99.90;;;;;;5043044;28;20294;-68
2022/10/05 02:07:25;;;;;;;0.97;0.97;;;11.60;99.90;;;;;;5047474;28;20300;-68
2022/10/05 02:09:58;;;;;;;0.90;0.90;;;11.60;99.90;;;;;;5044451;28;20196;-69
2022/10/05 02:12:31;;;;;;;1.60;1.50;;;11.60;99.90;;;;;;5040967;28;20212;-68
2022/10/05 02:15:07;;;;;;;0.90;0.90;;;11.60;99.90;;;;;;5037547;28;20192;-68
2022/10/05 02:17:40;;;;;;;1.83;1.00;;;11.60;99.90;;;;;;5043573;28;20295;-68
2022/10/05 02:20:11;;;;;;;0.93;0.93;;;11.60;99.90;;;;;;5043893;28;20592;-67
2022/10/05 02:22:41;;;;;;;1.10;1.10;;;11.60;99.90;;;;;;5043808;28;20671;-68
2022/10/05 02:25:13;;;;;;;0.90;0.90;;;11.60;99.90;;;;;;5039644;28;20725;-69
2022/10/05 02:27:47;;;;;;;1.07;1.07;;;11.60;99.90;;;;;;5038933;28;20211;-70
2022/10/05 02:30:17;;;;;;;0.80;0.80;;;11.60;99.90;;;;;;5043817;28;20199;-68
2022/10/05 02:32:51;;;;;;;0.87;0.87;;;11.60;99.90;;;;;;5045217;28;20247;-68
2022/10/05 02:35:19;;;;;;;1.07;1.07;;;11.60;99.90;;;;;;5042837;28;20225;-67
2022/10/05 02:37:56;;;;;;;1.00;1.00;;;11.60;99.90;;;;;;5047513;28;20210;-67
2022/10/05 02:40:34;;;;;;;0.90;0.90;;;11.60;99.90;;;;;;5044741;28;20204;-67
2022/10/05 02:43:09;;;;;;;0.90;0.90;;;11.50;99.90;;;;;;5041966;28;20219;-68
2022/10/05 02:45:46;;;;;;;1.23;1.20;;;11.50;99.90;;;;;;5035219;28;20223;-68
2022/10/05 02:48:20;;;;;;;1.03;1.03;;;11.50;99.90;;;;;;5045831;28;20204;-67
2022/10/05 02:50:55;;;;;;;0.90;0.90;;;11.60;99.90;;;;;;5043552;28;20206;-67
2022/10/05 02:53:27;;;;;;;1.43;1.00;;;11.40;99.90;;;;;;5045422;28;20210;-67
2022/10/05 02:56:09;;;;;;;0.90;0.90;;;11.40;99.90;;;;;;5043941;28;20250;-68
2022/10/05 02:58:45;;;;;;;1.00;1.00;;;11.40;99.90;;;;;;5042433;28;20212;-67
2022/10/05 03:01:22;;;;;;;0.73;0.73;;;11.40;99.90;;;;;;5044638;28;20549;-67
2022/10/05 03:04:01;;;;;;;1.00;1.00;;;11.40;99.90;;;;;;5035868;28;20200;-67
2022/10/05 03:06:32;;;;;;;3.10;1.20;;;11.30;99.90;;;;;;5040675;28;20566;-66
2022/10/05 03:09:03;;;;;;;1.00;1.00;;;11.30;99.90;;;;;;5043488;28;20210;-68
2022/10/05 03:11:41;;;;;;;1.20;1.10;;;11.20;99.90;;;;;;5044469;28;20210;-68
2022/10/05 03:14:14;;;;;;;2.40;1.10;;;11.30;99.90;;;;;;5032086;28;20200;-68
2022/10/05 03:16:54;;;;;;;1.23;1.20;;;11.20;99.90;;;;;;5042418;28;20252;-67
2022/10/05 03:19:42;;;;;;;0.93;0.93;;;11.20;99.90;;;;;;5038862;28;20683;-67
2022/10/05 03:22:19;;;;;;;1.37;1.37;;;11.20;99.90;;;;;;5037964;28;20199;-68
2022/10/05 03:25:12;;;;;;;1.10;1.00;;;11.20;99.90;;;;;;5031077;28;20604;-68
2022/10/05 03:27:48;;;;;;;1.00;1.00;;;11.20;99.90;;;;;;5052705;28;20268;-67
2022/10/05 03:30:17;;;;;;;0.90;0.90;;;11.10;99.90;;;;;;5053369;28;20867;-68
2022/10/05 03:32:56;;;;;;;0.87;0.87;;;11.10;99.90;;;;;;5052184;28;20207;-67
2022/10/05 03:35:29;;;;;;;1.13;1.07;;;11.10;99.90;;;;;;5053904;28;20280;-67
2022/10/05 03:38:06;;;;;;;0.90;0.90;;;10.90;99.90;;;;;;5055728;28;20266;-68
2022/10/05 03:40:38;;;;;;;1.00;1.00;;;11.10;99.90;;;;;;5055081;28;20287;-68
2022/10/05 03:43:35;;;;;;;0.80;0.80;;;11.00;99.90;;;;;;5038083;28;20200;-67
2022/10/05 03:46:10;;;;;;;0.90;0.90;;;11.00;99.90;;;;;;4994538;28;20724;-68
2022/10/05 03:48:43;;;;;;;1.10;1.10;;;11.00;99.90;;;;;;5035601;28;20287;-68
2022/10/05 03:51:17;;;;;;;1.00;1.00;;;11.00;99.90;;;;;;5043178;28;20208;-67
2022/10/05 03:53:47;;;;;;;1.00;1.00;;;10.90;99.90;;;;;;5031619;28;20285;-68
2022/10/05 03:56:18;;;;;;;0.90;0.90;;;10.90;99.90;;;;;;5036533;28;20671;-67
2022/10/05 03:58:55;;;;;;;1.03;1.03;;;10.80;99.90;;;;;;5038035;28;20263;-67
2022/10/05 04:01:25;;;;;;;1.10;1.10;;;10.80;99.90;;;;;;5040826;28;20678;-68
2022/10/05 04:03:57;;;;;;;1.00;1.00;;;10.70;99.90;;;;;;5039939;28;20577;-68
2022/10/05 04:06:27;;;;;;;0.90;0.90;;;10.70;99.90;;;;;;5044374;28;20217;-67
2022/10/05 04:08:59;;;;;;;1.07;1.07;;;10.80;99.90;;;;;;5047706;28;20203;-67
2022/10/05 04:11:31;;;;;;;1.23;1.13;;;10.80;99.90;;;;;;5055775;28;20207;-68
2022/10/05 04:14:03;;;;;;;1.00;1.00;;;10.70;99.90;;;;;;5043582;28;20757;-67
2022/10/05 04:16:34;;;;;;;0.80;0.80;;;10.70;99.90;;;;;;5052384;28;20228;-68
2022/10/05 04:19:10;;;;;;;0.80;0.80;;;10.70;99.90;;;;;;5043893;28;20212;-67
2022/10/05 04:21:40;;;;;;;1.00;1.00;;;10.80;99.90;;;;;;5044863;28;20206;-67
2022/10/05 04:24:14;;;;;;;0.77;0.77;;;10.80;99.90;;;;;;5045649;28;20667;-68
2022/10/05 04:26:47;;;;;;;0.80;0.80;;;10.90;99.90;;;;;;5043626;28;20235;-67
2022/10/05 04:29:21;;;;;;;1.00;1.00;;;10.90;99.90;;;;;;5040594;28;20208;-67
2022/10/05 04:32:09;;;;;;;0.90;0.90;;;10.90;99.90;;;;;;5036525;28;20196;-68
2022/10/05 04:34:56;;;;;;;0.80;0.80;;;11.00;99.90;;;;;;5039364;28;20552;-68
2022/10/05 04:37:34;;;;;;;1.00;1.00;;;11.00;99.90;;;;;;5038035;28;20220;-67
2022/10/05 04:40:13;;;;;;;1.03;0.90;;;11.00;99.90;;;;;;5037147;28;20205;-67
2022/10/05 04:42:46;;;;;;;0.90;0.90;;;10.90;99.90;;;;;;5042239;28;20643;-69
2022/10/05 04:45:24;;;;;;;0.83;0.83;;;10.90;99.90;;;;;;5035701;28;20235;-67
2022/10/05 04:48:07;;;;;;;1.00;1.00;;;11.00;99.90;;;;;;5042173;28;20198;-68
2022/10/05 04:50:45;;;;;;;0.90;0.90;;;11.00;99.90;;;;;;5045579;28;20207;-68
2022/10/05 04:53:22;;;;;;;1.10;1.10;;;11.00;99.90;;;;;;5034772;28;20205;-68
2022/10/05 04:55:56;;;;;;;0.90;0.90;;;11.00;99.90;;;;;;5045334;28;20231;-66
2022/10/05 04:58:36;;;;;;;1.00;1.00;;;10.90;99.90;;;;;;5037575;28;20205;-67
2022/10/05 05:01:13;;;;;;;1.00;1.00;;;11.00;99.90;;;;;;5040606;28;20676;-67
2022/10/05 05:03:57;;;;;;;0.90;0.90;;;11.00;99.90;;;;;;5039496;28;20279;-67
2022/10/05 05:06:33;;;;;;;0.90;0.90;;;11.00;99.90;;;;;;5029658;28;20231;-68
2022/10/05 05:09:35;;;;;;;0.90;0.90;;;11.00;99.90;;;;;;5043727;28;20208;-67
2022/10/05 05:12:18;;;;;;;1.00;1.00;;;11.00;99.90;;;;;;5042749;28;20215;-68
2022/10/05 05:15:07;;;;;;;0.90;0.90;;;11.00;99.90;;;;;;5049743;28;20200;-68
2022/10/05 05:17:56;;;;;;;1.00;1.00;;;11.00;99.90;;;;;;5039468;28;20850;-67
2022/10/05 05:20:30;;;;;;;1.30;1.20;;;11.00;99.90;;;;;;5044555;28;20203;-67
2022/10/05 05:23:07;;;;;;;1.23;1.13;;;11.00;99.90;;;;;;5032499;28;20207;-66
2022/10/05 05:25:43;;;;;;;0.90;0.90;;;11.00;99.90;;;;;;5043140;28;20228;-67
2022/10/05 05:28:25;;;;;;;0.70;0.70;;;10.90;99.90;;;;;;5045892;28;20283;-67
2022/10/05 05:31:00;;;;;;;1.00;0.93;;;10.90;99.90;;;;;;5043804;28;20678;-67
2022/10/05 05:33:36;;;;;;;1.03;0.90;;;10.90;99.90;;;;;;5045735;28;20204;-67
2022/10/05 05:36:27;;;;;;;0.83;0.83;;;10.90;99.90;;;;;;5045161;28;20227;-68
2022/10/05 05:39:11;;;;;;;0.90;0.90;;;10.80;99.90;;;;;;5042993;28;20697;-68
2022/10/05 05:41:39;;;;;;;1.00;0.90;;;10.80;99.90;;;;;;5048307;28;20223;-67
2022/10/05 05:44:19;;;;;;;0.90;0.90;;;10.80;99.90;;;;;;5047758;28;20213;-67
2022/10/05 05:46:53;;;;;;;0.90;0.90;;;10.80;99.90;;;;;;5044287;28;20598;-67
2022/10/05 05:49:26;;;;;;;0.93;0.93;;;10.80;99.90;;;;;;5046730;28;20201;-66
2022/10/05 05:51:59;;;;;;;1.57;1.13;;;10.90;99.90;;;;;;5045032;28;20319;-67
2022/10/05 05:54:33;;;;;;;0.90;0.90;;;10.90;99.90;;;;;;5044096;28;20210;-68
2022/10/05 05:57:09;;;;;;;1.00;1.00;;;10.90;99.90;;;;;;5033992;28;20228;-66
2022/10/05 05:59:54;;;;;;;0.90;0.90;;;10.90;99.90;;;;;;5046440;28;20271;-68
2022/10/05 06:02:26;;;;;;;1.13;1.03;;;11.00;99.90;;;;;;5048986;28;20212;-67
2022/10/05 06:05:00;;;;;;;0.87;0.87;;;11.00;99.90;;;;;;5044330;28;20834;-67
2022/10/05 06:07:30;;;;;;;2.53;0.97;;;11.00;99.90;;;;;;5045176;28;20200;-68
2022/10/05 06:10:05;;;;;;;0.90;0.90;;;11.00;99.90;;;;;;5038722;28;20200;-68
2022/10/05 06:12:35;;;;;;;0.93;0.93;;;11.10;99.90;;;;;;5041787;28;20693;-68
2022/10/05 06:15:12;;;;;;;0.83;0.83;;;11.20;99.90;;;;;;5041759;28;20205;-68
2022/10/05 06:17:42;;;;;;;0.90;0.90;;;11.20;99.90;;;;;;5050118;28;20220;-68
2022/10/05 06:20:25;;;;;;;0.80;0.80;;;11.30;99.90;;;;;;5045269;28;20202;-68
2022/10/05 06:22:54;;;;;;;1.13;1.13;;;11.30;99.90;;;;;;5058939;28;20204;-68
2022/10/05 06:25:31;;;;;;;1.00;1.00;;;11.40;99.90;;;;;;5046643;28;20715;-67
2022/10/05 06:28:03;;;;;;;0.70;0.70;;;11.50;99.90;;;;;;5041423;28;20199;-68
2022/10/05 06:30:43;;;;;;;1.00;1.00;;;11.60;99.90;;;;;;5044093;28;20197;-68
2022/10/05 06:33:35;;;;;;;1.00;1.00;;;11.60;99.90;;;;;;5028119;28;20296;-67
2022/10/05 06:36:15;;;;;;;0.83;0.83;;;11.70;99.90;;;;;;5035105;28;20232;-68
2022/10/05 06:39:13;;;;;;;0.90;0.90;;;11.70;99.90;;;;;;5044068;28;20222;-67
2022/10/05 06:41:55;;;;;;;2.10;1.00;;;11.70;99.90;;;;;;5015605;28;20216;-67
2022/10/05 06:44:27;;;;;;;1.00;1.00;;;11.70;99.90;;;;;;5039935;28;20196;-67
2022/10/05 06:47:01;;;;;;;1.00;1.00;;;11.80;99.90;;;;;;5033046;28;20280;-67
2022/10/05 06:49:31;;;;;;;0.90;0.90;;;11.90;99.90;;;;;;5035908;28;20201;-67
2022/10/05 06:52:09;;;;;;;0.90;0.90;;;11.90;99.90;;;;;;5033739;28;20595;-69
2022/10/05 06:54:45;;;;;;;0.90;0.90;;;12.00;99.90;;;;;;5032552;28;20202;-68
2022/10/05 06:57:29;;;;;;;0.80;0.80;;;12.20;99.90;;;;;;5045831;28;20666;-67
2022/10/05 07:00:00;;;;;;;0.70;0.70;;;12.30;99.90;;;;;;5040921;28;20214;-69
2022/10/05 07:02:36;;;;;;;1.00;1.00;;;12.30;99.90;;;;;;5050698;28;20296;-68
2022/10/05 07:05:43;;;;;;;1.53;0.90;;;12.50;99.90;;;;;;5040355;28;20215;-66
2022/10/05 07:08:13;;;;;;;0.90;0.90;;;12.50;99.90;;;;;;5036963;28;20200;-68
2022/10/05 07:10:56;;;;;;;0.80;0.80;;;12.70;99.90;;;;;;5034867;28;20213;-67
2022/10/05 07:13:43;;;;;;;0.80;0.80;;;12.80;99.90;;;;;;5034737;28;20196;-67
2022/10/05 07:16:17;;;;;;;1.10;1.10;;;12.90;99.90;;;;;;5033139;28;20220;-68
2022/10/05 07:18:52;;;;;;;0.90;0.90;;;13.00;99.90;;;;;;5038421;28;20231;-69
2022/10/05 07:21:28;;;;;;;0.90;0.90;;;13.20;99.90;;;;;;5034026;28;20202;-67
2022/10/05 07:24:04;;;;;;;0.80;0.80;;;13.40;99.90;;;;;;5036642;28;20234;-68
2022/10/05 07:26:34;;;;;;;0.87;0.87;;;13.40;99.90;;;;;;5036479;28;20231;-68
2022/10/05 07:29:21;;;;;;;0.83;0.83;;;13.60;99.90;;;;;;5018771;28;20207;-67
2022/10/05 07:31:53;;;;;;;0.70;0.70;;;13.70;99.90;;;;;;5043540;28;20208;-68
2022/10/05 07:34:31;;;;;;;0.80;0.80;;;13.80;99.90;;;;;;5039976;28;20205;-68
2022/10/05 07:40:00;;;;;;;0.90;0.90;;;14.10;99.90;;;;;;5036042;28;20286;-68
2022/10/05 07:42:39;;;;;;;0.80;0.80;;;14.20;99.90;;;;;;5043287;28;20200;-69
2022/10/05 07:45:19;;;;;;;0.80;0.80;;;14.40;99.90;;;;;;5037803;28;20295;-68
2022/10/05 07:47:53;;;;;;;0.80;0.80;;;14.50;99.90;;;;;;5023923;28;20224;-68
2022/10/05 07:50:26;;;;;;;0.90;0.90;;;14.60;99.90;;;;;;5037142;28;20566;-69
2022/10/05 07:52:57;;;;;;;0.77;0.77;;;14.70;99.90;;;;;;5021892;28;20200;-66
2022/10/05 07:55:26;;;;;;;0.80;0.80;;;14.90;99.90;;;;;;5032646;28;20232;-67
2022/10/05 07:58:04;;;;;;;0.90;0.90;;;15.20;99.90;;;;;;5033472;28;20224;-67
2022/10/05 08:00:49;;;;;;;0.90;0.90;;;15.40;99.90;;;;;;5032179;28;20192;-67
2022/10/05 08:03:26;;;;;;;0.80;0.80;;;15.60;99.90;;;;;;5030074;28;20200;-67
2022/10/05 08:05:53;;;;;;;0.80;0.80;;;15.80;99.90;;;;;;5037800;28;20234;-67
2022/10/05 08:08:28;;;;;;;0.80;0.80;;;16.00;99.90;;;;;;5037043;28;20564;-68
2022/10/05 08:11:01;;;;;;;0.90;0.90;;;16.20;99.90;;;;;;5035428;28;20210;-68
2022/10/05 08:13:34;;;;;;;0.90;0.90;;;16.40;99.90;;;;;;5032408;28;20196;-67
2022/10/05 08:16:11;;;;;;;0.63;0.63;;;16.60;99.90;;;;;;5032144;28;20232;-67
2022/10/05 08:18:48;;;;;;;0.60;0.60;;;16.80;99.90;;;;;;5025246;28;20220;-68
2022/10/05 08:21:18;;;;;;;0.90;0.90;;;16.90;99.90;;;;;;5034256;28;20208;-67
2022/10/05 08:23:50;;;;;;;0.60;0.60;;;17.10;99.90;;;;;;5034298;28;20220;-67
2022/10/05 08:26:26;;;;;;;0.80;0.80;;;17.30;99.90;;;;;;5030387;28;20228;-66
2022/10/05 08:29:03;;;;;;;3.50;0.90;;;17.40;99.90;;;;;;5032592;28;20207;-66
2022/10/05 08:31:35;;;;;;;0.70;0.70;;;17.60;99.90;;;;;;5036838;28;20196;-67
2022/10/05 08:34:19;;;;;;;1.07;0.80;;;17.70;99.90;;;;;;5032464;28;20212;-67
2022/10/05 08:36:54;;;;;;;0.60;0.60;;;17.90;99.90;;;;;;5040759;28;20574;-66
2022/10/05 08:39:25;;;;;;;0.60;0.60;;;18.10;99.90;;;;;;5035213;28;20200;-68
2022/10/05 08:42:22;;;;;;;0.70;0.70;;;18.30;99.90;;;;;;5042469;28;20200;-68
2022/10/05 08:45:38;;;;;;;0.90;0.90;;;18.40;99.90;;;;;;5025755;28;20197;-67
2022/10/05 08:48:25;;;;;;;0.87;0.87;;;18.70;99.90;;;;;;4980054;28;20205;-66
2022/10/05 08:51:31;;;;;;;0.60;0.60;;;18.90;99.90;;;;;;5051457;28;20201;-67
2022/10/05 08:54:25;;;;;;;0.73;0.73;;;19.10;99.90;;;;;;5038863;28;20204;-68
2022/10/05 08:57:06;;;;;;;0.73;0.73;;;19.30;99.90;;;;;;5038424;28;20252;-66
2022/10/05 09:00:00;;;;;;;0.90;0.90;;;19.50;99.90;;;;;;5037573;28;20205;-67
2022/10/05 09:02:43;;;;;;;0.80;0.80;;;19.50;99.90;;;;;;5041558;28;20291;-67
2022/10/05 09:05:36;;;;;;;0.60;0.60;;;19.40;99.90;;;;;;5037004;28;20224;-68
2022/10/05 09:08:30;;;;;;;1.00;1.00;;;19.60;99.90;;;;;;5038015;28;20204;-68
2022/10/05 09:11:04;;;;;;;0.87;0.87;;;19.70;99.90;;;;;;5041549;28;20206;-68
2022/10/05 09:13:59;;;;;;;0.80;0.80;;;19.90;99.90;;;;;;5032393;28;20208;-67
2022/10/05 09:16:45;;;;;;;0.90;0.90;;;20.00;99.90;;;;;;5027010;28;20737;-67
2022/10/05 09:19:49;;;;;;;0.90;0.90;;;20.20;99.90;;;;;;5029107;28;20611;-68
2022/10/05 09:22:32;;;;;;;0.90;0.90;;;20.30;99.90;;;;;;5034864;28;20262;-68
2022/10/05 09:25:13;;;;;;;1.90;1.00;;;20.40;99.90;;;;;;5032064;28;20210;-68
2022/10/05 09:27:48;;;;;;;0.80;0.80;;;20.40;99.90;;;;;;5040360;28;20200;-66
2022/10/05 09:30:26;;;;;;;0.80;0.80;;;20.60;99.90;;;;;;5030370;28;20200;-68
2022/10/05 09:33:28;;;;;;;1.20;0.90;;;20.80;99.90;;;;;;5043755;28;20191;-66
2022/10/05 09:36:21;;;;;;;1.00;1.00;;;20.90;99.90;;;;;;5035267;28;20307;-67
2022/10/05 09:39:29;;;;;;;0.90;0.90;;;20.90;99.90;;;;;;5031152;28;20213;-68
2022/10/05 09:42:40;;;;;;;0.87;0.87;;;21.20;99.90;;;;;;5040082;28;20200;-68
2022/10/05 09:45:40;;;;;;;0.90;0.90;;;21.30;99.90;;;;;;5002363;28;20211;-68
2022/10/05 09:48:59;;;;;;;0.70;0.70;;;21.50;99.90;;;;;;5032699;28;20287;-68
2022/10/05 09:52:16;;;;;;;0.50;0.50;;;21.70;99.90;;;;;;4956170;28;20249;-67
2022/10/05 09:55:16;;;;;;;0.60;0.60;;;21.90;99.90;;;;;;4916862;29;20209;-67
2022/10/05 09:58:13;;;;;;;0.63;0.63;;;22.10;99.90;;;;;;5038266;28;20228;-67
2022/10/05 10:00:54;;;;;;;0.60;0.60;;;22.30;99.90;;;;;;5022766;28;20205;-68
2022/10/05 10:04:06;;;;;;;0.70;0.70;;;22.40;99.90;;;;;;5051671;28;20200;-67
2022/10/05 10:06:54;;;;;;;0.53;0.53;;;22.50;99.90;;;;;;5039895;28;20246;-67
2022/10/05 10:09:34;;;;;;;0.53;0.53;;;22.60;99.90;;;;;;5038002;28;20651;-67
2022/10/05 10:12:26;;;;;;;0.90;0.90;;;22.70;99.90;;;;;;5033336;28;20218;-67
2022/10/05 10:15:27;;;;;;;0.70;0.70;;;22.80;99.90;;;;;;5037861;28;20283;-67
2022/10/05 10:18:27;;;;;;;0.70;0.70;;;22.80;99.90;;;;;;5039652;28;20228;-67
2022/10/05 10:21:28;;;;;;;0.60;0.60;;;22.90;99.90;;;;;;5035530;28;20509;-67
2022/10/05 10:24:03;;;;;;;0.70;0.70;;;22.90;99.90;;;;;;5044217;28;20262;-66
2022/10/05 10:26:54;;;;;;;0.60;0.60;;;23.10;99.90;;;;;;5038904;28;20234;-68
2022/10/05 10:30:04;;;;;;;0.50;0.50;;;23.20;99.90;;;;;;5038895;28;20575;-68
2022/10/05 10:33:01;;;;;;;0.50;0.50;;;23.30;99.90;;;;;;5038756;28;20208;-68
2022/10/05 10:35:33;;;;;;;0.67;0.67;;;23.30;99.90;;;;;;5029082;28;20220;-67
2022/10/05 10:38:29;;;;;;;0.63;0.63;;;23.30;99.90;;;;;;5039336;28;20227;-67
2022/10/05 10:41:33;;;;;;;0.60;0.60;;;23.30;99.90;;;;;;5037129;28;20188;-68
2022/10/05 10:44:47;;;;;;;0.70;0.70;;;23.50;99.90;;;;;;5048295;28;20218;-67
2022/10/05 10:47:50;;;;;;;0.57;0.57;;;23.60;99.90;;;;;;5034822;28;20220;-66
2022/10/05 10:50:59;;;;;;;0.50;0.50;;;23.60;99.90;;;;;;5027546;28;20291;-67
2022/10/05 10:54:01;;;;;;;0.83;0.80;;;23.60;99.90;;;;;;5034944;28;20196;-67
2022/10/05 10:56:53;;;;;;;0.50;0.50;;;23.80;99.90;;;;;;5035717;28;20225;-66
2022/10/05 10:59:55;;;;;;;1.27;0.80;;;23.80;99.90;;;;;;5030919;28;20216;-68
2022/10/05 11:02:41;;;;;;;0.60;0.60;;;23.80;99.90;;;;;;5033580;28;20222;-67
2022/10/05 11:05:30;;;;;;;0.63;0.63;;;23.90;99.90;;;;;;5033294;28;20228;-67
2022/10/05 11:08:42;;;;;;;0.70;0.70;;;24.00;99.90;;;;;;5030730;28;20215;-68
2022/10/05 11:11:35;;;;;;;0.70;0.70;;;24.10;99.90;;;;;;4965908;28;20202;-67
2022/10/05 11:14:32;;;;;;;0.87;0.80;;;24.20;99.90;;;;;;5028406;28;20647;-67
2022/10/05 11:17:18;;;;;;;0.77;0.77;;;24.40;99.90;;;;;;5034354;28;20238;-67
2022/10/05 11:19:51;;;;;;;0.70;0.70;;;24.40;99.90;;;;;;5034057;28;20224;-68
2022/10/05 11:22:40;;;;;;;0.50;0.50;;;24.40;99.90;;;;;;5037547;28;20227;-68
2022/10/05 11:25:30;;;;;;;1.40;0.73;;;24.30;99.90;;;;;;5032299;28;20201;-68
2022/10/05 11:28:30;;;;;;;0.87;0.87;;;24.20;99.90;;;;;;5032149;28;20200;-67
2022/10/05 11:31:35;;;;;;;0.70;0.70;;;24.10;99.90;;;;;;4998356;28;20204;-67
2022/10/05 11:34:41;;;;;;;0.73;0.73;;;24.10;99.90;;;;;;4991766;28;20214;-67
2022/10/05 11:37:38;;;;;;;0.77;0.77;;;24.10;99.90;;;;;;5022063;28;20223;-67
2022/10/05 11:40:52;;;;;;;0.60;0.60;;;24.10;99.90;;;;;;5027426;28;20208;-67
2022/10/05 11:43:46;;;;;;;0.90;0.90;;;24.20;99.90;;;;;;4942190;28;20299;-67
2022/10/05 11:46:23;;;;;;;1.00;0.60;;;24.20;99.90;;;;;;5015445;28;20323;-66
2022/10/05 11:49:11;;;;;;;0.60;0.60;;;24.20;99.90;;;;;;5025445;28;20203;-67
2022/10/05 11:51:52;;;;;;;0.77;0.77;;;24.30;99.90;;;;;;5034076;28;20207;-68
2022/10/05 11:54:36;;;;;;;0.63;0.63;;;24.30;99.90;;;;;;5037961;28;20624;-68
2022/10/05 11:57:24;;;;;;;0.87;0.87;;;24.40;99.90;;;;;;5027932;28;20303;-68
2022/10/05 11:59:56;;;;;;;0.70;0.70;;;24.40;99.90;;;;;;5020965;28;20207;-68
2022/10/05 12:02:41;;;;;;;0.80;0.80;;;24.50;99.90;;;;;;5022559;28;20742;-67
2022/10/05 12:05:15;;;;;;;0.70;0.70;;;24.60;99.90;;;;;;5022936;28;20232;-66
2022/10/05 12:07:51;;;;;;;0.60;0.60;;;24.60;99.90;;;;;;5022728;28;20200;-67
2022/10/05 12:10:31;;;;;;;0.70;0.70;;;24.70;99.90;;;;;;5023206;28;20562;-67
2022/10/05 12:13:12;;;;;;;0.70;0.70;;;24.70;99.90;;;;;;5041766;28;20204;-67
2022/10/05 12:15:46;;;;;;;0.60;0.60;;;24.80;99.90;;;;;;5029190;28;20234;-68
2022/10/05 12:18:18;;;;;;;0.73;0.63;;;24.60;99.90;;;;;;5037555;28;20298;-67
2022/10/05 12:20:50;;;;;;;0.80;0.80;;;24.70;99.90;;;;;;5036862;28;20210;-67
2022/10/05 12:23:24;;;;;;;0.80;0.80;;;24.70;99.90;;;;;;5037630;28;20207;-61
2022/10/05 12:25:56;;;;;;;0.60;0.60;;;24.70;99.90;;;;;;5022466;28;20224;-62
2022/10/05 12:28:33;;;;;;;0.50;0.50;;;24.70;99.90;;;;;;5037995;28;20232;-61
2022/10/05 12:31:29;;;;;;;0.68;0.68;;;24.60;99.90;;;;;;5036686;28;20210;-60
2022/10/05 12:34:03;;;;;;;0.47;0.47;;;24.60;99.90;;;;;;5041500;28;20206;-61
2022/10/05 12:36:37;;;;;;;0.60;0.60;;;24.60;99.90;;;;;;5038660;28;20224;-61
2022/10/05 12:39:13;;;;;;;0.60;0.60;;;24.70;99.90;;;;;;5041045;28;20223;-62
2022/10/05 12:41:47;;;;;;;1.13;0.70;;;24.60;99.90;;;;;;5044148;28;20204;-62
2022/10/05 12:44:31;;;;;;;0.60;0.60;;;24.60;99.90;;;;;;5048331;28;20199;-62
2022/10/05 12:47:07;;;;;;;1.50;0.98;;;24.40;99.90;;;;;;5051214;28;20227;-61
2022/10/05 12:49:51;;;;;;;0.80;0.80;;;24.30;99.90;;;;;;5049574;28;20206;-61
2022/10/05 12:52:31;;;;;;;1.10;0.85;;;24.10;99.90;;;;;;5040986;28;20805;-62
2022/10/05 12:55:05;;;;;;;0.43;0.43;;;24.20;99.90;;;;;;5043068;28;20198;-61
2022/10/05 12:57:40;;;;;;;0.80;0.80;;;24.30;99.90;;;;;;5041326;28;20193;-61
2022/10/05 13:00:11;;;;;;;1.10;0.50;;;24.30;99.90;;;;;;5038787;28;20231;-62
2022/10/05 13:02:44;;;;;;;0.63;0.63;;;24.40;99.90;;;;;;5044113;28;20205;-61
2022/10/05 13:05:27;;;;;;;0.70;0.70;;;24.60;99.90;;;;;;5039208;28;20217;-61
2022/10/05 13:08:05;;;;;;;0.45;0.45;;;24.60;99.90;;;;;;5045159;28;20206;-62
2022/10/05 13:10:37;;;;;;;0.60;0.60;;;24.70;99.90;;;;;;5045720;28;20539;-61
2022/10/05 13:13:28;;;;;;;0.60;0.60;;;24.80;99.90;;;;;;5039667;28;20204;-62
2022/10/05 13:16:05;;;;;;;0.70;0.50;;;24.90;99.90;;;;;;5042702;28;20754;-63
2022/10/05 13:18:44;;;;;;;0.60;0.60;;;24.80;99.90;;;;;;5034864;28;20212;-62
2022/10/05 13:21:15;;;;;;;0.67;0.67;;;24.80;99.90;;;;;;5034857;28;20583;-62
2022/10/05 13:23:54;;;;;;;0.60;0.60;;;24.90;99.90;;;;;;5039774;28;20224;-61
2022/10/05 13:26:26;;;;;;;0.63;0.63;;;24.80;99.90;;;;;;5037250;28;20224;-61
2022/10/05 13:29:01;;;;;;;0.90;0.90;;;24.70;99.90;;;;;;5048664;28;20218;-62
2022/10/05 13:31:32;;;;;;;1.55;0.80;;;24.80;99.90;;;;;;5035896;28;20204;-62
2022/10/05 13:34:14;;;;;;;0.50;0.50;;;24.80;99.90;;;;;;5041061;28;20204;-62
2022/10/05 13:36:53;;;;;;;1.40;0.60;;;24.80;99.90;;;;;;5044562;28;20307;-62
2022/10/05 13:39:41;;;;;;;0.60;0.60;;;24.90;99.90;;;;;;5039227;28;20220;-62
2022/10/05 13:42:15;;;;;;;0.57;0.57;;;25.10;99.90;;;;;;5041992;28;20296;-64
2022/10/05 13:44:47;;;;;;;0.68;0.60;;;24.90;99.90;;;;;;5036883;28;20197;-62
2022/10/05 13:47:25;;;;;;;0.63;0.50;;;25.00;99.90;;;;;;5043805;28;20200;-61
2022/10/05 13:49:57;;;;;;;0.70;0.70;;;25.00;99.90;;;;;;5041509;28;20290;-67
2022/10/05 13:52:34;;;;;;;0.80;0.80;;;25.10;99.90;;;;;;5045257;28;20216;-66
2022/10/05 13:55:12;;;;;;;0.50;0.50;;;25.20;99.90;;;;;;5039985;28;20562;-67
2022/10/05 13:57:50;;;;;;;0.50;0.50;;;25.20;99.90;;;;;;5043934;28;20224;-66